sensor_id;sensor_type;location;lat;lon;timestamp;P1;durP1;ratioP1;P2;durP2;ratioP2
53052;SDS011;38934;52.690;6.184;2023-01-15T00:00:15;9.57;;;2.38;;
53052;SDS011;38934;52.690;6.184;2023-01-15T00:02:42;8.40;;;2.22;;
53052;SDS011;38934;52.690;6.184;2023-01-15T00:05:07;9.52;;;2.35;;
53052;SDS011;38934;52.690;6.184;2023-01-15T00:07:33;10.02;;;2.20;;
53052;SDS011;38934;52.690;6.184;2023-01-15T00:09:58;8.40;;;2.20;;
53052;SDS011;38934;52.690;6.184;2023-01-15T00:12:24;10.77;;;2.10;;
53052;SDS011;38934;52.690;6.184;2023-01-15T00:14:50;10.70;;;3.22;;
53052;SDS011;38934;52.690;6.184;2023-01-15T00:17:16;9.23;;;2.28;;
53052;SDS011;38934;52.690;6.184;2023-01-15T00:19:41;5.93;;;1.80;;
53052;SDS011;38934;52.690;6.184;2023-01-15T00:22:09;8.02;;;2.40;;
53052;SDS011;38934;52.690;6.184;2023-01-15T00:24:43;9.38;;;2.15;;
53052;SDS011;38934;52.690;6.184;2023-01-15T00:27:27;9.55;;;2.28;;
53052;SDS011;38934;52.690;6.184;2023-01-15T00:30:07;9.20;;;1.77;;
53052;SDS011;38934;52.690;6.184;2023-01-15T00:32:37;8.15;;;2.30;;
53052;SDS011;38934;52.690;6.184;2023-01-15T00:35:18;8.30;;;2.30;;
53052;SDS011;38934;52.690;6.184;2023-01-15T00:37:47;8.10;;;1.92;;
53052;SDS011;38934;52.690;6.184;2023-01-15T00:40:25;11.48;;;2.30;;
53052;SDS011;38934;52.690;6.184;2023-01-15T00:42:51;6.65;;;2.08;;
53052;SDS011;38934;52.690;6.184;2023-01-15T00:45:17;7.97;;;1.85;;
53052;SDS011;38934;52.690;6.184;2023-01-15T00:47:43;9.60;;;2.33;;
53052;SDS011;38934;52.690;6.184;2023-01-15T00:50:13;11.02;;;2.67;;
53052;SDS011;38934;52.690;6.184;2023-01-15T00:52:39;13.15;;;2.05;;
53052;SDS011;38934;52.690;6.184;2023-01-15T00:55:13;10.35;;;2.10;;
53052;SDS011;38934;52.690;6.184;2023-01-15T00:57:38;7.78;;;1.70;;
53052;SDS011;38934;52.690;6.184;2023-01-15T01:00:10;7.93;;;1.90;;
53052;SDS011;38934;52.690;6.184;2023-01-15T01:02:36;10.33;;;2.00;;
53052;SDS011;38934;52.690;6.184;2023-01-15T01:05:02;11.90;;;2.10;;
53052;SDS011;38934;52.690;6.184;2023-01-15T01:07:28;8.38;;;1.85;;
53052;SDS011;38934;52.690;6.184;2023-01-15T01:10:02;12.65;;;2.50;;
53052;SDS011;38934;52.690;6.184;2023-01-15T01:12:27;9.43;;;2.65;;
53052;SDS011;38934;52.690;6.184;2023-01-15T01:14:55;8.35;;;1.65;;
53052;SDS011;38934;52.690;6.184;2023-01-15T01:17:22;9.43;;;1.98;;
53052;SDS011;38934;52.690;6.184;2023-01-15T01:22:41;6.97;;;1.90;;
53052;SDS011;38934;52.690;6.184;2023-01-15T01:25:09;10.48;;;2.20;;
53052;SDS011;38934;52.690;6.184;2023-01-15T01:27:36;14.07;;;2.28;;
53052;SDS011;38934;52.690;6.184;2023-01-15T01:30:02;10.30;;;2.20;;
53052;SDS011;38934;52.690;6.184;2023-01-15T01:32:28;8.85;;;2.03;;
53052;SDS011;38934;52.690;6.184;2023-01-15T01:34:53;5.97;;;2.10;;
53052;SDS011;38934;52.690;6.184;2023-01-15T01:37:19;11.15;;;2.13;;
53052;SDS011;38934;52.690;6.184;2023-01-15T01:39:46;11.52;;;2.60;;
53052;SDS011;38934;52.690;6.184;2023-01-15T01:42:22;9.82;;;2.22;;
53052;SDS011;38934;52.690;6.184;2023-01-15T01:47:20;10.02;;;1.80;;
53052;SDS011;38934;52.690;6.184;2023-01-15T01:50:13;10.30;;;2.13;;
53052;SDS011;38934;52.690;6.184;2023-01-15T01:52:40;8.93;;;2.53;;
53052;SDS011;38934;52.690;6.184;2023-01-15T01:55:13;12.23;;;2.13;;
53052;SDS011;38934;52.690;6.184;2023-01-15T01:57:42;8.07;;;2.33;;
53052;SDS011;38934;52.690;6.184;2023-01-15T02:00:10;9.10;;;2.13;;
53052;SDS011;38934;52.690;6.184;2023-01-15T02:02:38;9.70;;;2.45;;
53052;SDS011;38934;52.690;6.184;2023-01-15T02:05:04;8.82;;;2.08;;
53052;SDS011;38934;52.690;6.184;2023-01-15T02:07:32;9.07;;;2.05;;
53052;SDS011;38934;52.690;6.184;2023-01-15T02:10:00;11.65;;;2.38;;
53052;SDS011;38934;52.690;6.184;2023-01-15T02:12:37;9.88;;;2.30;;
53052;SDS011;38934;52.690;6.184;2023-01-15T02:28:26;9.10;;;2.03;;
53052;SDS011;38934;52.690;6.184;2023-01-15T02:31:05;9.05;;;2.30;;
53052;SDS011;38934;52.690;6.184;2023-01-15T02:36:34;9.35;;;2.20;;
53052;SDS011;38934;52.690;6.184;2023-01-15T02:39:05;10.75;;;2.05;;
53052;SDS011;38934;52.690;6.184;2023-01-15T02:41:34;13.35;;;2.35;;
53052;SDS011;38934;52.690;6.184;2023-01-15T02:44:10;9.63;;;2.00;;
53052;SDS011;38934;52.690;6.184;2023-01-15T02:46:40;8.50;;;2.38;;
53052;SDS011;38934;52.690;6.184;2023-01-15T02:49:16;11.73;;;2.00;;
53052;SDS011;38934;52.690;6.184;2023-01-15T02:51:54;11.48;;;2.30;;
53052;SDS011;38934;52.690;6.184;2023-01-15T02:54:30;8.25;;;2.50;;
53052;SDS011;38934;52.690;6.184;2023-01-15T02:57:03;11.70;;;2.40;;
53052;SDS011;38934;52.690;6.184;2023-01-15T02:59:32;9.73;;;2.38;;
53052;SDS011;38934;52.690;6.184;2023-01-15T03:02:08;10.25;;;2.42;;
53052;SDS011;38934;52.690;6.184;2023-01-15T03:07:46;8.43;;;2.00;;
53052;SDS011;38934;52.690;6.184;2023-01-15T03:10:18;10.80;;;2.20;;
53052;SDS011;38934;52.690;6.184;2023-01-15T03:12:47;11.88;;;2.70;;
53052;SDS011;38934;52.690;6.184;2023-01-15T03:24:14;10.98;;;2.35;;
53052;SDS011;38934;52.690;6.184;2023-01-15T03:32:37;12.15;;;2.08;;
53052;SDS011;38934;52.690;6.184;2023-01-15T03:41:02;10.38;;;3.00;;
53052;SDS011;38934;52.690;6.184;2023-01-15T03:43:55;16.45;;;3.22;;
53052;SDS011;38934;52.690;6.184;2023-01-15T03:57:26;7.57;;;2.00;;
53052;SDS011;38934;52.690;6.184;2023-01-15T04:00:11;7.75;;;2.45;;
53052;SDS011;38934;52.690;6.184;2023-01-15T04:02:49;8.27;;;2.40;;
53052;SDS011;38934;52.690;6.184;2023-01-15T04:05:31;12.65;;;2.58;;
53052;SDS011;38934;52.690;6.184;2023-01-15T04:08:01;10.55;;;2.10;;
53052;SDS011;38934;52.690;6.184;2023-01-15T04:10:36;10.50;;;1.88;;
53052;SDS011;38934;52.690;6.184;2023-01-15T04:13:02;11.52;;;2.60;;
53052;SDS011;38934;52.690;6.184;2023-01-15T04:15:28;10.57;;;2.30;;
53052;SDS011;38934;52.690;6.184;2023-01-15T04:17:54;12.68;;;2.10;;
53052;SDS011;38934;52.690;6.184;2023-01-15T04:20:23;8.00;;;2.00;;
53052;SDS011;38934;52.690;6.184;2023-01-15T04:22:50;13.07;;;2.63;;
53052;SDS011;38934;52.690;6.184;2023-01-15T04:25:25;9.20;;;2.53;;
53052;SDS011;38934;52.690;6.184;2023-01-15T04:28:02;12.43;;;2.40;;
53052;SDS011;38934;52.690;6.184;2023-01-15T04:30:35;7.65;;;2.63;;
53052;SDS011;38934;52.690;6.184;2023-01-15T04:33:07;13.77;;;2.17;;
53052;SDS011;38934;52.690;6.184;2023-01-15T04:38:03;12.15;;;2.40;;
53052;SDS011;38934;52.690;6.184;2023-01-15T04:40:28;9.45;;;1.92;;
53052;SDS011;38934;52.690;6.184;2023-01-15T04:43:14;10.77;;;2.50;;
53052;SDS011;38934;52.690;6.184;2023-01-15T04:46:06;12.95;;;2.85;;
53052;SDS011;38934;52.690;6.184;2023-01-15T04:48:43;14.05;;;2.67;;
53052;SDS011;38934;52.690;6.184;2023-01-15T04:53:41;7.13;;;2.28;;
53052;SDS011;38934;52.690;6.184;2023-01-15T04:56:20;10.25;;;2.50;;
53052;SDS011;38934;52.690;6.184;2023-01-15T04:58:47;10.68;;;2.17;;
53052;SDS011;38934;52.690;6.184;2023-01-15T05:01:16;11.23;;;2.53;;
53052;SDS011;38934;52.690;6.184;2023-01-15T05:03:45;11.35;;;2.60;;
53052;SDS011;38934;52.690;6.184;2023-01-15T05:06:13;9.70;;;2.40;;
53052;SDS011;38934;52.690;6.184;2023-01-15T05:08:52;10.32;;;2.85;;
53052;SDS011;38934;52.690;6.184;2023-01-15T05:11:20;7.85;;;2.58;;
53052;SDS011;38934;52.690;6.184;2023-01-15T05:13:46;11.52;;;3.13;;
53052;SDS011;38934;52.690;6.184;2023-01-15T05:18:47;11.77;;;2.40;;
53052;SDS011;38934;52.690;6.184;2023-01-15T05:21:23;10.70;;;2.25;;
53052;SDS011;38934;52.690;6.184;2023-01-15T05:26:54;13.83;;;2.67;;
53052;SDS011;38934;52.690;6.184;2023-01-15T05:29:25;10.25;;;2.33;;
53052;SDS011;38934;52.690;6.184;2023-01-15T05:31:51;10.13;;;2.30;;
53052;SDS011;38934;52.690;6.184;2023-01-15T05:34:17;11.07;;;2.42;;
53052;SDS011;38934;52.690;6.184;2023-01-15T05:36:51;10.57;;;2.50;;
53052;SDS011;38934;52.690;6.184;2023-01-15T05:39:30;8.18;;;2.47;;
53052;SDS011;38934;52.690;6.184;2023-01-15T05:42:01;7.32;;;1.73;;
53052;SDS011;38934;52.690;6.184;2023-01-15T05:44:28;10.15;;;2.15;;
53052;SDS011;38934;52.690;6.184;2023-01-15T05:46:59;7.03;;;2.00;;
53052;SDS011;38934;52.690;6.184;2023-01-15T05:52:14;6.82;;;2.10;;
53052;SDS011;38934;52.690;6.184;2023-01-15T05:54:42;8.85;;;1.95;;
53052;SDS011;38934;52.690;6.184;2023-01-15T05:57:14;11.65;;;2.10;;
53052;SDS011;38934;52.690;6.184;2023-01-15T06:02:10;8.43;;;2.88;;
53052;SDS011;38934;52.690;6.184;2023-01-15T06:04:49;9.88;;;2.10;;
53052;SDS011;38934;52.690;6.184;2023-01-15T06:07:14;9.70;;;2.20;;
53052;SDS011;38934;52.690;6.184;2023-01-15T06:12:35;13.00;;;3.15;;
53052;SDS011;38934;52.690;6.184;2023-01-15T06:15:01;10.43;;;2.40;;
53052;SDS011;38934;52.690;6.184;2023-01-15T06:17:26;10.38;;;2.20;;
53052;SDS011;38934;52.690;6.184;2023-01-15T06:19:58;11.95;;;2.08;;
53052;SDS011;38934;52.690;6.184;2023-01-15T06:22:24;10.90;;;2.53;;
53052;SDS011;38934;52.690;6.184;2023-01-15T06:24:56;9.15;;;2.60;;
53052;SDS011;38934;52.690;6.184;2023-01-15T06:27:24;9.32;;;1.98;;
53052;SDS011;38934;52.690;6.184;2023-01-15T06:29:51;8.68;;;2.30;;
53052;SDS011;38934;52.690;6.184;2023-01-15T06:32:17;6.85;;;2.47;;
53052;SDS011;38934;52.690;6.184;2023-01-15T06:34:45;6.70;;;2.00;;
53052;SDS011;38934;52.690;6.184;2023-01-15T06:37:20;11.98;;;2.10;;
53052;SDS011;38934;52.690;6.184;2023-01-15T06:39:46;7.13;;;2.30;;
53052;SDS011;38934;52.690;6.184;2023-01-15T06:42:12;8.10;;;2.20;;
53052;SDS011;38934;52.690;6.184;2023-01-15T06:44:58;8.90;;;2.00;;
53052;SDS011;38934;52.690;6.184;2023-01-15T06:47:44;7.15;;;2.38;;
53052;SDS011;38934;52.690;6.184;2023-01-15T06:50:16;6.55;;;1.90;;
53052;SDS011;38934;52.690;6.184;2023-01-15T06:52:44;9.07;;;2.15;;
53052;SDS011;38934;52.690;6.184;2023-01-15T06:55:17;7.95;;;1.80;;
53052;SDS011;38934;52.690;6.184;2023-01-15T07:00:23;10.85;;;2.10;;
53052;SDS011;38934;52.690;6.184;2023-01-15T07:02:50;13.52;;;2.55;;
53052;SDS011;38934;52.690;6.184;2023-01-15T07:05:21;12.20;;;3.13;;
53052;SDS011;38934;52.690;6.184;2023-01-15T07:07:47;11.43;;;1.95;;
53052;SDS011;38934;52.690;6.184;2023-01-15T07:10:16;8.98;;;2.10;;
53052;SDS011;38934;52.690;6.184;2023-01-15T07:12:42;7.57;;;2.58;;
53052;SDS011;38934;52.690;6.184;2023-01-15T07:18:06;8.20;;;1.67;;
53052;SDS011;38934;52.690;6.184;2023-01-15T07:22:58;6.63;;;1.98;;
53052;SDS011;38934;52.690;6.184;2023-01-15T07:25:24;10.52;;;1.90;;
53052;SDS011;38934;52.690;6.184;2023-01-15T07:27:49;8.65;;;2.03;;
53052;SDS011;38934;52.690;6.184;2023-01-15T07:30:17;7.78;;;2.10;;
53052;SDS011;38934;52.690;6.184;2023-01-15T07:32:43;10.23;;;2.15;;
53052;SDS011;38934;52.690;6.184;2023-01-15T07:35:08;6.18;;;1.60;;
53052;SDS011;38934;52.690;6.184;2023-01-15T07:37:34;9.00;;;1.70;;
53052;SDS011;38934;52.690;6.184;2023-01-15T07:40:00;6.85;;;2.08;;
53052;SDS011;38934;52.690;6.184;2023-01-15T07:42:25;6.28;;;1.77;;
53052;SDS011;38934;52.690;6.184;2023-01-15T07:45:10;4.82;;;1.70;;
53052;SDS011;38934;52.690;6.184;2023-01-15T07:47:54;4.53;;;1.85;;
53052;SDS011;38934;52.690;6.184;2023-01-15T07:50:38;7.68;;;1.90;;
53052;SDS011;38934;52.690;6.184;2023-01-15T07:53:04;7.13;;;2.58;;
53052;SDS011;38934;52.690;6.184;2023-01-15T07:55:30;7.35;;;1.95;;
53052;SDS011;38934;52.690;6.184;2023-01-15T07:57:55;10.23;;;1.90;;
53052;SDS011;38934;52.690;6.184;2023-01-15T08:00:22;8.65;;;2.85;;
53052;SDS011;38934;52.690;6.184;2023-01-15T08:02:49;8.55;;;1.90;;
53052;SDS011;38934;52.690;6.184;2023-01-15T08:05:16;7.70;;;1.88;;
53052;SDS011;38934;52.690;6.184;2023-01-15T08:07:42;11.68;;;2.08;;
53052;SDS011;38934;52.690;6.184;2023-01-15T08:10:14;8.60;;;1.90;;
53052;SDS011;38934;52.690;6.184;2023-01-15T08:12:40;8.50;;;1.92;;
53052;SDS011;38934;52.690;6.184;2023-01-15T08:15:30;5.07;;;1.83;;
53052;SDS011;38934;52.690;6.184;2023-01-15T08:20:29;8.43;;;1.90;;
53052;SDS011;38934;52.690;6.184;2023-01-15T08:22:55;10.07;;;1.92;;
53052;SDS011;38934;52.690;6.184;2023-01-15T08:25:24;8.55;;;2.03;;
53052;SDS011;38934;52.690;6.184;2023-01-15T08:27:50;13.27;;;2.47;;
53052;SDS011;38934;52.690;6.184;2023-01-15T08:30:17;8.23;;;2.00;;
53052;SDS011;38934;52.690;6.184;2023-01-15T08:32:45;8.15;;;1.80;;
53052;SDS011;38934;52.690;6.184;2023-01-15T08:35:11;6.07;;;1.90;;
53052;SDS011;38934;52.690;6.184;2023-01-15T08:37:38;6.13;;;2.00;;
53052;SDS011;38934;52.690;6.184;2023-01-15T08:40:04;6.95;;;1.95;;
53052;SDS011;38934;52.690;6.184;2023-01-15T08:42:30;10.30;;;2.35;;
53052;SDS011;38934;52.690;6.184;2023-01-15T08:44:56;9.02;;;2.33;;
53052;SDS011;38934;52.690;6.184;2023-01-15T08:47:21;11.00;;;2.05;;
53052;SDS011;38934;52.690;6.184;2023-01-15T08:49:47;7.97;;;1.70;;
53052;SDS011;38934;52.690;6.184;2023-01-15T08:52:13;8.52;;;1.83;;
53052;SDS011;38934;52.690;6.184;2023-01-15T08:54:39;9.23;;;2.17;;
53052;SDS011;38934;52.690;6.184;2023-01-15T08:59:36;9.77;;;1.80;;
53052;SDS011;38934;52.690;6.184;2023-01-15T09:02:02;9.40;;;1.95;;
53052;SDS011;38934;52.690;6.184;2023-01-15T09:04:27;4.90;;;1.58;;
53052;SDS011;38934;52.690;6.184;2023-01-15T09:06:53;5.43;;;1.75;;
53052;SDS011;38934;52.690;6.184;2023-01-15T09:09:19;7.97;;;1.80;;
53052;SDS011;38934;52.690;6.184;2023-01-15T09:11:48;7.63;;;1.80;;
53052;SDS011;38934;52.690;6.184;2023-01-15T09:14:16;3.55;;;1.65;;
53052;SDS011;38934;52.690;6.184;2023-01-15T09:16:41;5.15;;;1.60;;
53052;SDS011;38934;52.690;6.184;2023-01-15T09:19:08;8.23;;;1.95;;
53052;SDS011;38934;52.690;6.184;2023-01-15T09:21:35;8.73;;;1.98;;
53052;SDS011;38934;52.690;6.184;2023-01-15T09:24:02;7.30;;;2.03;;
53052;SDS011;38934;52.690;6.184;2023-01-15T09:26:30;7.47;;;2.10;;
53052;SDS011;38934;52.690;6.184;2023-01-15T09:28:59;7.97;;;1.90;;
53052;SDS011;38934;52.690;6.184;2023-01-15T09:33:54;12.23;;;2.17;;
53052;SDS011;38934;52.690;6.184;2023-01-15T09:36:26;8.23;;;2.40;;
53052;SDS011;38934;52.690;6.184;2023-01-15T09:38:54;15.25;;;2.15;;
53052;SDS011;38934;52.690;6.184;2023-01-15T09:41:22;10.98;;;2.55;;
53052;SDS011;38934;52.690;6.184;2023-01-15T09:55:33;7.32;;;2.28;;
53052;SDS011;38934;52.690;6.184;2023-01-15T09:58:14;12.48;;;2.40;;
53052;SDS011;38934;52.690;6.184;2023-01-15T10:00:47;12.25;;;2.47;;
53052;SDS011;38934;52.690;6.184;2023-01-15T10:03:28;7.00;;;1.88;;
53052;SDS011;38934;52.690;6.184;2023-01-15T10:06:08;15.70;;;2.17;;
53052;SDS011;38934;52.690;6.184;2023-01-15T10:08:50;7.15;;;2.33;;
53052;SDS011;38934;52.690;6.184;2023-01-15T10:11:30;11.82;;;2.60;;
53052;SDS011;38934;52.690;6.184;2023-01-15T10:14:34;7.88;;;1.90;;
53052;SDS011;38934;52.690;6.184;2023-01-15T10:17:17;8.68;;;2.00;;
53052;SDS011;38934;52.690;6.184;2023-01-15T10:20:01;9.60;;;1.92;;
53052;SDS011;38934;52.690;6.184;2023-01-15T10:27:44;6.83;;;1.80;;
53052;SDS011;38934;52.690;6.184;2023-01-15T10:30:45;8.70;;;2.25;;
53052;SDS011;38934;52.690;6.184;2023-01-15T10:33:35;8.07;;;2.70;;
53052;SDS011;38934;52.690;6.184;2023-01-15T10:44:23;10.68;;;2.22;;
53052;SDS011;38934;52.690;6.184;2023-01-15T10:47:17;11.18;;;2.15;;
53052;SDS011;38934;52.690;6.184;2023-01-15T10:49:48;12.18;;;2.40;;
53052;SDS011;38934;52.690;6.184;2023-01-15T10:52:26;10.90;;;2.25;;
53052;SDS011;38934;52.690;6.184;2023-01-15T10:55:22;7.85;;;2.22;;
53052;SDS011;38934;52.690;6.184;2023-01-15T10:58:15;8.15;;;1.90;;
53052;SDS011;38934;52.690;6.184;2023-01-15T11:03:57;7.15;;;1.73;;
53052;SDS011;38934;52.690;6.184;2023-01-15T11:14:53;9.90;;;2.30;;
53052;SDS011;38934;52.690;6.184;2023-01-15T11:17:50;10.43;;;2.40;;
53052;SDS011;38934;52.690;6.184;2023-01-15T11:20:42;10.98;;;2.60;;
53052;SDS011;38934;52.690;6.184;2023-01-15T11:23:10;9.90;;;2.00;;
53052;SDS011;38934;52.690;6.184;2023-01-15T11:25:46;8.43;;;1.90;;
53052;SDS011;38934;52.690;6.184;2023-01-15T11:28:17;15.07;;;3.15;;
53052;SDS011;38934;52.690;6.184;2023-01-15T11:31:04;9.93;;;2.13;;
53052;SDS011;38934;52.690;6.184;2023-01-15T11:33:30;8.27;;;2.53;;
53052;SDS011;38934;52.690;6.184;2023-01-15T11:36:04;6.28;;;2.05;;
53052;SDS011;38934;52.690;6.184;2023-01-15T11:38:47;11.70;;;2.10;;
53052;SDS011;38934;52.690;6.184;2023-01-15T11:41:15;10.20;;;1.98;;
53052;SDS011;38934;52.690;6.184;2023-01-15T11:43:56;7.22;;;1.85;;
53052;SDS011;38934;52.690;6.184;2023-01-15T11:46:53;7.70;;;2.13;;
53052;SDS011;38934;52.690;6.184;2023-01-15T11:49:39;7.32;;;2.70;;
53052;SDS011;38934;52.690;6.184;2023-01-15T11:52:38;7.38;;;2.13;;
53052;SDS011;38934;52.690;6.184;2023-01-15T11:55:12;5.13;;;1.95;;
53052;SDS011;38934;52.690;6.184;2023-01-15T11:57:44;9.35;;;1.90;;
53052;SDS011;38934;52.690;6.184;2023-01-15T12:00:20;14.43;;;2.92;;
53052;SDS011;38934;52.690;6.184;2023-01-15T12:03:26;18.25;;;2.63;;
53052;SDS011;38934;52.690;6.184;2023-01-15T12:08:41;9.27;;;2.40;;
53052;SDS011;38934;52.690;6.184;2023-01-15T12:20:15;9.00;;;2.17;;
53052;SDS011;38934;52.690;6.184;2023-01-15T12:29:25;8.25;;;2.15;;
53052;SDS011;38934;52.690;6.184;2023-01-15T12:34:28;14.55;;;2.55;;
53052;SDS011;38934;52.690;6.184;2023-01-15T12:39:51;9.10;;;1.90;;
53052;SDS011;38934;52.690;6.184;2023-01-15T12:42:56;8.85;;;1.88;;
53052;SDS011;38934;52.690;6.184;2023-01-15T12:45:52;7.10;;;2.10;;
53052;SDS011;38934;52.690;6.184;2023-01-15T12:48:33;6.38;;;1.70;;
53052;SDS011;38934;52.690;6.184;2023-01-15T12:51:07;5.30;;;2.00;;
53052;SDS011;38934;52.690;6.184;2023-01-15T12:59:05;6.78;;;1.70;;
53052;SDS011;38934;52.690;6.184;2023-01-15T13:10:41;10.15;;;2.13;;
53052;SDS011;38934;52.690;6.184;2023-01-15T13:13:13;14.38;;;2.10;;
53052;SDS011;38934;52.690;6.184;2023-01-15T13:18:48;8.98;;;1.95;;
53052;SDS011;38934;52.690;6.184;2023-01-15T13:21:17;10.07;;;2.05;;
53052;SDS011;38934;52.690;6.184;2023-01-15T13:29:18;6.80;;;2.25;;
53052;SDS011;38934;52.690;6.184;2023-01-15T13:37:30;7.93;;;2.15;;
53052;SDS011;38934;52.690;6.184;2023-01-15T13:45:41;14.82;;;2.60;;
53052;SDS011;38934;52.690;6.184;2023-01-15T13:50:56;10.98;;;2.25;;
53052;SDS011;38934;52.690;6.184;2023-01-15T13:53:33;9.93;;;2.40;;
53052;SDS011;38934;52.690;6.184;2023-01-15T13:56:03;10.38;;;2.33;;
53052;SDS011;38934;52.690;6.184;2023-01-15T14:01:38;18.58;;;2.63;;
53052;SDS011;38934;52.690;6.184;2023-01-15T14:04:12;9.70;;;2.72;;
53052;SDS011;38934;52.690;6.184;2023-01-15T14:06:55;2.47;;;1.20;;
53052;SDS011;38934;52.690;6.184;2023-01-15T14:39:45;4.35;;;1.70;;
53052;SDS011;38934;52.690;6.184;2023-01-15T14:47:58;3.80;;;1.38;;
53052;SDS011;38934;52.690;6.184;2023-01-15T14:55:40;5.93;;;1.63;;
53052;SDS011;38934;52.690;6.184;2023-01-15T15:03:57;5.05;;;1.80;;
53052;SDS011;38934;52.690;6.184;2023-01-15T15:06:31;10.55;;;2.70;;
53052;SDS011;38934;52.690;6.184;2023-01-15T15:09:03;6.22;;;2.45;;
53052;SDS011;38934;52.690;6.184;2023-01-15T15:11:34;8.52;;;2.78;;
53052;SDS011;38934;52.690;6.184;2023-01-15T15:14:23;8.57;;;2.78;;
53052;SDS011;38934;52.690;6.184;2023-01-15T15:17:05;9.05;;;2.70;;
53052;SDS011;38934;52.690;6.184;2023-01-15T15:19:44;6.18;;;2.42;;
53052;SDS011;38934;52.690;6.184;2023-01-15T15:22:15;9.60;;;2.60;;
53052;SDS011;38934;52.690;6.184;2023-01-15T15:24:53;8.60;;;2.58;;
53052;SDS011;38934;52.690;6.184;2023-01-15T15:27:20;10.88;;;2.45;;
53052;SDS011;38934;52.690;6.184;2023-01-15T15:33:01;8.52;;;2.78;;
53052;SDS011;38934;52.690;6.184;2023-01-15T15:35:35;8.50;;;2.85;;
53052;SDS011;38934;52.690;6.184;2023-01-15T15:38:14;11.93;;;3.97;;
53052;SDS011;38934;52.690;6.184;2023-01-15T15:40:44;12.93;;;3.50;;
53052;SDS011;38934;52.690;6.184;2023-01-15T15:46:21;8.52;;;2.28;;
53052;SDS011;38934;52.690;6.184;2023-01-15T15:49:12;8.50;;;1.75;;
53052;SDS011;38934;52.690;6.184;2023-01-15T15:51:44;8.15;;;2.10;;
53052;SDS011;38934;52.690;6.184;2023-01-15T15:56:51;10.55;;;1.92;;
53052;SDS011;38934;52.690;6.184;2023-01-15T15:59:27;6.70;;;2.13;;
53052;SDS011;38934;52.690;6.184;2023-01-15T16:02:07;6.20;;;2.42;;
53052;SDS011;38934;52.690;6.184;2023-01-15T16:07:48;4.38;;;1.40;;
53052;SDS011;38934;52.690;6.184;2023-01-15T16:10:30;1.95;;;1.60;;
53052;SDS011;38934;52.690;6.184;2023-01-15T16:13:06;4.05;;;1.38;;
53052;SDS011;38934;52.690;6.184;2023-01-15T16:15:38;2.38;;;1.30;;
53052;SDS011;38934;52.690;6.184;2023-01-15T16:18:13;9.27;;;2.10;;
53052;SDS011;38934;52.690;6.184;2023-01-15T16:23:20;3.30;;;1.80;;
53052;SDS011;38934;52.690;6.184;2023-01-15T16:34:28;5.90;;;1.75;;
53052;SDS011;38934;52.690;6.184;2023-01-15T16:37:15;5.65;;;1.95;;
53052;SDS011;38934;52.690;6.184;2023-01-15T16:42:32;5.63;;;2.05;;
53052;SDS011;38934;52.690;6.184;2023-01-15T16:45:21;10.38;;;2.20;;
53052;SDS011;38934;52.690;6.184;2023-01-15T16:51:07;6.07;;;2.00;;
53052;SDS011;38934;52.690;6.184;2023-01-15T16:54:11;6.30;;;2.00;;
53052;SDS011;38934;52.690;6.184;2023-01-15T16:57:23;6.60;;;1.85;;
53052;SDS011;38934;52.690;6.184;2023-01-15T17:02:49;7.90;;;2.10;;
53052;SDS011;38934;52.690;6.184;2023-01-15T17:05:22;5.38;;;1.92;;
53052;SDS011;38934;52.690;6.184;2023-01-15T17:07:49;9.60;;;2.30;;
53052;SDS011;38934;52.690;6.184;2023-01-15T17:10:21;6.88;;;1.90;;
53052;SDS011;38934;52.690;6.184;2023-01-15T17:12:49;7.88;;;1.90;;
53052;SDS011;38934;52.690;6.184;2023-01-15T17:17:42;14.52;;;3.72;;
53052;SDS011;38934;52.690;6.184;2023-01-15T17:20:12;9.50;;;2.65;;
53052;SDS011;38934;52.690;6.184;2023-01-15T17:22:40;10.02;;;2.55;;
53052;SDS011;38934;52.690;6.184;2023-01-15T17:27:58;8.80;;;2.00;;
53052;SDS011;38934;52.690;6.184;2023-01-15T17:30:24;6.35;;;2.33;;
53052;SDS011;38934;52.690;6.184;2023-01-15T17:33:02;9.82;;;2.50;;
53052;SDS011;38934;52.690;6.184;2023-01-15T17:35:30;5.28;;;2.20;;
53052;SDS011;38934;52.690;6.184;2023-01-15T17:37:57;9.93;;;2.45;;
53052;SDS011;38934;52.690;6.184;2023-01-15T17:40:23;8.35;;;2.58;;
53052;SDS011;38934;52.690;6.184;2023-01-15T17:42:49;11.55;;;2.50;;
53052;SDS011;38934;52.690;6.184;2023-01-15T17:51:01;10.45;;;2.28;;
53052;SDS011;38934;52.690;6.184;2023-01-15T17:53:41;10.05;;;2.22;;
53052;SDS011;38934;52.690;6.184;2023-01-15T17:59:16;10.73;;;2.55;;
53052;SDS011;38934;52.690;6.184;2023-01-15T18:02:03;11.63;;;2.47;;
53052;SDS011;38934;52.690;6.184;2023-01-15T18:07:56;5.57;;;1.65;;
53052;SDS011;38934;52.690;6.184;2023-01-15T18:10:25;4.38;;;1.70;;
53052;SDS011;38934;52.690;6.184;2023-01-15T18:12:51;4.25;;;1.80;;
53052;SDS011;38934;52.690;6.184;2023-01-15T18:15:29;8.20;;;1.80;;
53052;SDS011;38934;52.690;6.184;2023-01-15T18:17:55;2.78;;;1.70;;
53052;SDS011;38934;52.690;6.184;2023-01-15T18:22:52;6.20;;;2.03;;
53052;SDS011;38934;52.690;6.184;2023-01-15T18:25:19;3.47;;;2.00;;
53052;SDS011;38934;52.690;6.184;2023-01-15T18:30:32;4.30;;;1.42;;
53052;SDS011;38934;52.690;6.184;2023-01-15T18:32:58;2.63;;;1.45;;
53052;SDS011;38934;52.690;6.184;2023-01-15T18:38:04;1.67;;;1.50;;
53052;SDS011;38934;52.690;6.184;2023-01-15T18:40:30;3.38;;;1.40;;
53052;SDS011;38934;52.690;6.184;2023-01-15T18:43:08;5.65;;;2.13;;
53052;SDS011;38934;52.690;6.184;2023-01-15T18:49:22;4.00;;;1.90;;
53052;SDS011;38934;52.690;6.184;2023-01-15T18:52:03;3.00;;;1.92;;
53052;SDS011;38934;52.690;6.184;2023-01-15T18:54:48;5.47;;;2.00;;
53052;SDS011;38934;52.690;6.184;2023-01-15T18:57:20;9.18;;;2.17;;
53052;SDS011;38934;52.690;6.184;2023-01-15T18:59:52;10.00;;;3.03;;
53052;SDS011;38934;52.690;6.184;2023-01-15T19:02:24;5.45;;;2.40;;
53052;SDS011;38934;52.690;6.184;2023-01-15T19:04:52;8.45;;;2.53;;
53052;SDS011;38934;52.690;6.184;2023-01-15T19:07:20;5.85;;;2.67;;
53052;SDS011;38934;52.690;6.184;2023-01-15T19:09:46;5.35;;;2.30;;
53052;SDS011;38934;52.690;6.184;2023-01-15T19:12:13;7.25;;;3.13;;
53052;SDS011;38934;52.690;6.184;2023-01-15T19:21:50;3.92;;;2.70;;
53052;SDS011;38934;52.690;6.184;2023-01-15T19:27:34;3.50;;;2.33;;
53052;SDS011;38934;52.690;6.184;2023-01-15T19:33:08;8.50;;;3.60;;
53052;SDS011;38934;52.690;6.184;2023-01-15T19:38:36;6.07;;;3.90;;
53052;SDS011;38934;52.690;6.184;2023-01-15T19:44:25;12.95;;;4.82;;
53052;SDS011;38934;52.690;6.184;2023-01-15T19:47:20;10.88;;;5.40;;
53052;SDS011;38934;52.690;6.184;2023-01-15T19:52:57;13.45;;;6.50;;
53052;SDS011;38934;52.690;6.184;2023-01-15T19:55:32;12.57;;;6.10;;
53052;SDS011;38934;52.690;6.184;2023-01-15T19:58:10;13.55;;;5.93;;
53052;SDS011;38934;52.690;6.184;2023-01-15T20:00:37;11.95;;;6.63;;
53052;SDS011;38934;52.690;6.184;2023-01-15T20:03:04;12.27;;;6.03;;
53052;SDS011;38934;52.690;6.184;2023-01-15T20:05:43;13.15;;;6.38;;
53052;SDS011;38934;52.690;6.184;2023-01-15T20:08:13;10.80;;;5.90;;
53052;SDS011;38934;52.690;6.184;2023-01-15T20:10:47;9.50;;;5.63;;
53052;SDS011;38934;52.690;6.184;2023-01-15T20:13:21;10.93;;;5.75;;
53052;SDS011;38934;52.690;6.184;2023-01-15T20:16:09;10.52;;;5.78;;
53052;SDS011;38934;52.690;6.184;2023-01-15T20:18:37;10.85;;;5.80;;
53052;SDS011;38934;52.690;6.184;2023-01-15T20:21:09;10.45;;;5.20;;
53052;SDS011;38934;52.690;6.184;2023-01-15T20:23:50;9.85;;;5.43;;
53052;SDS011;38934;52.690;6.184;2023-01-15T20:26:26;12.35;;;5.20;;
53052;SDS011;38934;52.690;6.184;2023-01-15T20:34:20;11.13;;;4.80;;
53052;SDS011;38934;52.690;6.184;2023-01-15T20:36:57;11.23;;;4.90;;
53052;SDS011;38934;52.690;6.184;2023-01-15T20:39:29;9.27;;;4.32;;
53052;SDS011;38934;52.690;6.184;2023-01-15T20:41:58;10.40;;;4.80;;